Time;durP1;ratioP1;P1;durP2;ratioP2;P2;SDS_P1;SDS_P2;PMS_P1;PMS_P2;Temp;Humidity;BMP_temperature;BMP_pressure;BME280_temperature;BME280_humidity;BME280_pressure;Samples;Min_cycle;Max_cycle;Signal;HPM_P1;HPM_P2
2022/08/05 00:02:25;;;;;;;4.85;3.92;;;;;;;17.33;93.70;93295.78;5093042;28;20457;-89
2022/08/05 00:04:52;;;;;;;5.47;4.22;;;;;;;17.43;93.19;93308.84;5101167;28;20051;-81
2022/08/05 00:07:18;;;;;;;5.82;4.53;;;;;;;17.40;93.69;93304.13;5102443;28;20051;-81
2022/08/05 00:09:45;;;;;;;4.57;4.00;;;;;;;17.34;93.56;93302.53;5097739;28;20051;-81
2022/08/05 00:12:12;;;;;;;6.88;4.10;;;;;;;17.32;93.97;93302.78;5090289;28;20056;-81
2022/08/05 00:14:38;;;;;;;5.70;4.07;;;;;;;17.33;94.58;93300.97;5090188;28;20605;-81
2022/08/05 00:17:06;;;;;;;4.63;3.85;;;;;;;17.27;94.59;93294.97;5093400;28;20044;-81
2022/08/05 00:19:34;;;;;;;5.28;4.55;;;;;;;17.20;94.89;93297.00;5097108;28;20188;-80
2022/08/05 00:22:01;;;;;;;5.10;4.20;;;;;;;17.16;94.99;93290.72;5098808;28;20047;-80
2022/08/05 00:24:28;;;;;;;5.55;4.18;;;;;;;17.18;94.68;93297.22;5098204;28;20047;-81
2022/08/05 00:26:55;;;;;;;5.03;4.10;;;;;;;17.16;95.12;93296.72;5091111;28;20088;-82
2022/08/05 00:29:22;;;;;;;7.80;4.57;;;;;;;17.08;95.52;93297.19;5089672;28;20036;-81
2022/08/05 00:31:49;;;;;;;6.28;4.15;;;;;;;17.07;95.13;93290.41;5089164;28;20040;-81
2022/08/05 00:34:15;;;;;;;5.43;4.70;;;;;;;17.02;95.04;93296.31;5088786;28;20105;-81
2022/08/05 00:36:43;;;;;;;4.55;3.85;;;;;;;16.92;95.10;93273.66;5089144;28;20048;-81
2022/08/05 00:39:11;;;;;;;4.68;3.97;;;;;;;16.99;94.94;93291.59;5089252;28;20108;-81
2022/08/05 00:41:38;;;;;;;5.05;4.18;;;;;;;17.02;94.37;93292.91;5089431;28;20097;-81
2022/08/05 00:44:05;;;;;;;6.18;4.15;;;;;;;16.98;94.46;93292.63;5092081;28;20046;-81
2022/08/05 00:46:32;;;;;;;5.93;3.90;;;;;;;16.93;94.69;93290.78;5091353;28;20044;-81
2022/08/05 00:48:59;;;;;;;4.55;3.72;;;;;;;16.86;95.20;93286.84;5089261;28;20132;-82
2022/08/05 00:51:25;;;;;;;5.60;4.13;;;;;;;16.86;95.53;93286.84;5089197;28;20039;-82
2022/08/05 00:53:53;;;;;;;5.80;4.50;;;;;;;16.73;95.99;93282.81;5089199;28;20093;-81
2022/08/05 00:56:20;;;;;;;7.07;4.15;;;;;;;16.74;96.13;93292.97;5090178;28;20052;-82
2022/08/05 00:58:47;;;;;;;5.47;4.20;;;;;;;16.60;96.41;93278.81;5093495;28;20043;-82
2022/08/05 01:01:15;;;;;;;5.43;3.85;;;;;;;16.66;96.51;93289.00;5092752;28;20048;-81
2022/08/05 01:03:42;;;;;;;4.22;3.75;;;;;;;16.60;96.71;93289.97;5089118;28;20137;-81
2022/08/05 01:06:10;;;;;;;5.05;4.47;;;;;;;16.65;96.35;93294.44;5102115;28;20513;-80
2022/08/05 01:08:37;;;;;;;7.70;4.63;;;;;;;16.53;96.69;93277.22;5103682;28;20044;-81
2022/08/05 01:11:11;;;;;;;4.63;3.65;;;;;;;16.62;96.57;93281.97;5088161;28;20048;-81
2022/08/05 01:13:54;;;;;;;5.95;4.25;;;;;;;16.60;97.25;93289.19;5089123;28;20117;-81
2022/08/05 01:16:27;;;;;;;7.40;4.85;;;;;;;16.49;97.52;93286.53;5094711;28;20116;-81
2022/08/05 01:19:00;;;;;;;5.18;3.90;;;;;;;16.42;97.84;93286.69;5092359;28;20105;-81
2022/08/05 01:21:47;;;;;;;5.05;4.10;;;;;;;16.42;98.10;93288.50;5093454;28;20051;-81
2022/08/05 01:24:30;;;;;;;5.70;4.20;;;;;;;16.27;98.44;93269.19;5099984;28;20047;-81
2022/08/05 01:27:20;;;;;;;6.22;4.28;;;;;;;16.22;99.32;93281.28;5099979;28;20382;-82
2022/08/05 01:29:52;;;;;;;5.72;3.95;;;;;;;16.14;99.76;93280.72;5098661;28;20043;-83
2022/08/05 01:32:23;;;;;;;5.05;4.07;;;;;;;16.17;100.00;93287.97;5097972;28;20753;-80
2022/08/05 01:34:55;;;;;;;5.20;4.30;;;;;;;16.14;100.00;93278.13;5098449;28;20039;-81
2022/08/05 01:37:29;;;;;;;5.80;4.75;;;;;;;16.11;100.00;93280.41;5103498;28;20051;-80
2022/08/05 01:39:58;;;;;;;8.57;4.90;;;;;;;15.97;100.00;93248.91;5094928;28;20093;-80
2022/08/05 01:42:26;;;;;;;7.55;5.32;;;;;;;16.19;100.00;93282.56;5098088;28;20444;-79
2022/08/05 01:44:56;;;;;;;41.65;14.52;;;;;;;16.19;100.00;93281.78;5103445;28;20044;-79
2022/08/05 01:47:24;;;;;;;6.65;5.13;;;;;;;16.07;100.00;93274.13;5092154;28;20412;-79
2022/08/05 01:49:53;;;;;;;5.25;4.13;;;;;;;16.16;100.00;93273.47;5100222;28;20131;-80
2022/08/05 01:52:22;;;;;;;5.47;4.63;;;;;;;16.15;100.00;93278.88;5103120;28;20093;-80
2022/08/05 01:54:53;;;;;;;8.50;5.47;;;;;;;16.14;100.00;93274.72;5097832;28;20410;-80
2022/08/05 01:57:25;;;;;;;17.20;8.95;;;;;;;16.09;100.00;93277.25;5094514;28;20101;-81
2022/08/05 01:59:58;;;;;;;22.60;9.75;;;;;;;16.09;100.00;93280.66;5101357;28;20489;-80
2022/08/05 02:02:26;;;;;;;18.38;9.45;;;;;;;16.03;100.00;93271.25;5101624;28;20105;-80
2022/08/05 02:04:56;;;;;;;20.70;10.70;;;;;;;16.01;100.00;93275.88;5102017;28;20044;-80
2022/08/05 02:07:23;;;;;;;18.27;9.35;;;;;;;16.04;100.00;93280.59;5103186;28;20047;-80
2022/08/05 02:09:50;;;;;;;63.15;23.60;;;;;;;16.03;100.00;93282.38;5103160;28;20086;-80
2022/08/05 02:12:23;;;;;;;58.05;20.85;;;;;;;16.02;100.00;93277.47;5100694;28;20052;-80
2022/08/05 02:15:00;;;;;;;50.33;17.98;;;;;;;15.98;100.00;93268.59;5094930;28;20097;-79
2022/08/05 02:17:33;;;;;;;48.30;17.65;;;;;;;16.02;100.00;93274.88;5096315;28;20105;-80
2022/08/05 02:20:03;;;;;;;27.75;11.30;;;;;;;15.96;100.00;93268.84;5103277;28;20386;-79
2022/08/05 02:22:36;;;;;;;22.10;9.68;;;;;;;15.88;100.00;93264.84;5091182;28;20040;-79
2022/08/05 02:25:08;;;;;;;13.65;7.68;;;;;;;15.82;100.00;93267.59;5098432;28;20535;-79
2022/08/05 02:27:38;;;;;;;13.13;6.97;;;;;;;15.79;100.00;93275.84;5097047;28;20509;-79
2022/08/05 02:30:10;;;;;;;10.57;5.40;;;;;;;15.79;100.00;93268.88;5101869;28;20040;-79
2022/08/05 02:32:39;;;;;;;9.25;5.25;;;;;;;15.79;100.00;93274.06;5100229;28;20044;-79
2022/08/05 02:35:11;;;;;;;7.57;5.47;;;;;;;15.76;100.00;93266.75;5099969;28;20039;-79
2022/08/05 02:37:40;;;;;;;7.05;4.80;;;;;;;15.73;100.00;93280.97;5100905;28;20074;-79
2022/08/05 02:40:09;;;;;;;8.93;4.30;;;;;;;15.69;100.00;93277.28;5097847;28;20085;-79
2022/08/05 02:42:38;;;;;;;5.72;4.85;;;;;;;15.60;100.00;93278.75;5101475;28;20055;-79
2022/08/05 02:45:09;;;;;;;5.72;4.45;;;;;;;15.57;100.00;93274.03;5106581;28;20447;-80
2022/08/05 02:47:37;;;;;;;6.03;4.45;;;;;;;15.59;100.00;93269.38;5097305;28;20394;-78
2022/08/05 02:50:06;;;;;;;5.72;4.40;;;;;;;15.58;100.00;93271.19;5100738;28;20048;-79
2022/08/05 02:52:33;;;;;;;10.52;4.85;;;;;;;15.50;100.00;93269.81;5106552;28;20047;-78
2022/08/05 02:55:02;;;;;;;7.13;5.00;;;;;;;15.58;100.00;93278.19;5102089;28;20073;-78
2022/08/05 02:57:30;;;;;;;6.43;4.85;;;;;;;15.58;100.00;93280.75;5097792;28;20051;-78
2022/08/05 02:59:57;;;;;;;7.03;4.80;;;;;;;15.57;100.00;93266.25;5103313;28;20555;-78
2022/08/05 03:02:29;;;;;;;5.72;4.82;;;;;;;15.63;100.00;93271.28;5105817;28;20101;-78
2022/08/05 03:04:58;;;;;;;7.28;5.10;;;;;;;15.54;100.00;93271.91;5099593;28;20120;-78
2022/08/05 03:07:26;;;;;;;7.85;4.60;;;;;;;15.54;100.00;93275.28;5097509;28;20458;-79
2022/08/05 03:09:56;;;;;;;6.80;5.45;;;;;;;15.46;100.00;93266.13;5105446;28;20501;-78
2022/08/05 03:12:32;;;;;;;6.85;4.85;;;;;;;15.48;100.00;93265.88;5104930;28;20069;-78
2022/08/05 03:14:58;;;;;;;;;;;;;;;15.52;100.00;93273.97;5092103;28;20776;-78
2022/08/05 03:17:26;;;;;;;6.30;4.85;;;;;;;15.44;100.00;93275.13;5091704;28;19966;-78
2022/08/05 03:19:53;;;;;;;7.05;5.07;;;;;;;15.41;100.00;93279.00;5095982;28;20039;-78
2022/08/05 03:22:20;;;;;;;8.18;4.60;;;;;;;15.38;100.00;93279.47;5100492;28;20165;-78
2022/08/05 03:24:49;;;;;;;7.35;5.25;;;;;;;15.35;100.00;93279.94;5105773;28;20089;-79
2022/08/05 03:27:16;;;;;;;6.38;4.32;;;;;;;15.26;100.00;93287.31;5101059;28;20558;-80
2022/08/05 03:29:43;;;;;;;5.38;4.13;;;;;;;15.19;100.00;93278.94;5097280;28;20137;-79
2022/08/05 03:32:10;;;;;;;8.02;4.30;;;;;;;15.25;100.00;93275.41;5103715;28;20052;-80
2022/08/05 03:34:39;;;;;;;5.65;4.30;;;;;;;15.28;100.00;93292.28;5104844;28;20047;-78
2022/08/05 03:37:06;;;;;;;8.35;4.32;;;;;;;15.26;100.00;93281.34;5097864;28;20044;-78
2022/08/05 03:39:33;;;;;;;6.70;4.43;;;;;;;15.20;100.00;93273.53;5098669;28;20040;-80
2022/08/05 03:41:59;;;;;;;7.05;4.68;;;;;;;15.21;100.00;93285.44;5105392;28;20052;-79
2022/08/05 03:44:26;;;;;;;6.57;4.47;;;;;;;15.19;100.00;93281.53;5102383;28;20097;-79
2022/08/05 03:46:53;;;;;;;6.65;4.40;;;;;;;15.20;100.00;93280.50;5108575;28;20039;-80
2022/08/05 03:49:20;;;;;;;6.85;4.05;;;;;;;15.16;100.00;93277.63;5096398;28;20048;-80
2022/08/05 03:51:55;;;;;;;7.45;4.57;;;;;;;15.14;100.00;93277.03;5097349;28;20048;-80
2022/08/05 03:54:33;;;;;;;7.13;4.20;;;;;;;15.11;100.00;93280.13;5097923;28;20052;-80
2022/08/05 03:57:02;;;;;;;7.15;4.35;;;;;;;15.15;100.00;93285.59;5103244;28;20051;-80
2022/08/05 03:59:35;;;;;;;9.40;4.88;;;;;;;15.00;100.00;93257.72;5096847;28;20044;-80
2022/08/05 04:02:03;;;;;;;6.28;3.85;;;;;;;15.22;100.00;93284.44;5104114;28;20040;-80
2022/08/05 04:04:32;;;;;;;7.35;3.95;;;;;;;15.06;100.00;93249.00;5102842;28;20036;-79
2022/08/05 04:07:00;;;;;;;8.15;4.40;;;;;;;15.32;100.00;93278.59;5103031;28;20048;-79
2022/08/05 04:09:29;;;;;;;7.05;4.47;;;;;;;15.38;100.00;93273.50;5095747;28;20052;-79
2022/08/05 04:11:56;;;;;;;5.00;4.35;;;;;;;15.39;100.00;93275.06;5107460;28;20048;-79
2022/08/05 04:14:25;;;;;;;6.40;4.60;;;;;;;15.43;100.00;93279.56;5096125;28;20097;-80
2022/08/05 04:16:52;;;;;;;7.55;4.40;;;;;;;15.52;100.00;93279.13;5105770;28;20536;-80
2022/08/05 04:19:19;;;;;;;8.63;4.85;;;;;;;15.52;100.00;93276.53;5100572;28;20048;-80
2022/08/05 04:21:46;;;;;;;7.85;5.03;;;;;;;15.48;100.00;93268.47;5102669;28;20040;-80
2022/08/05 04:24:15;;;;;;;9.80;4.70;;;;;;;15.55;100.00;93274.25;5104011;28;20437;-81
2022/08/05 04:26:42;;;;;;;7.93;4.80;;;;;;;15.54;100.00;93283.06;5104780;28;20134;-78
2022/08/05 04:29:08;;;;;;;9.25;4.72;;;;;;;15.53;100.00;93275.50;5099823;28;20105;-79
2022/08/05 04:31:35;;;;;;;8.18;5.13;;;;;;;15.57;100.00;93276.63;5104295;28;20439;-78
2022/08/05 04:34:02;;;;;;;6.90;4.80;;;;;;;15.61;100.00;93270.72;5091758;28;20097;-79
2022/08/05 04:36:29;;;;;;;8.88;5.03;;;;;;;15.66;100.00;93274.41;5092679;28;20055;-78
2022/08/05 04:38:56;;;;;;;10.10;4.72;;;;;;;15.68;100.00;93264.56;5105179;28;20051;-78
2022/08/05 04:41:24;;;;;;;7.75;5.18;;;;;;;15.75;100.00;93272.97;5097200;28;20079;-79
2022/08/05 04:43:51;;;;;;;6.00;4.65;;;;;;;15.78;100.00;93262.13;5097863;28;20101;-79
2022/08/05 04:46:17;;;;;;;9.63;5.40;;;;;;;15.76;100.00;93272.72;5100236;28;20056;-79
2022/08/05 04:48:44;;;;;;;10.50;4.88;;;;;;;15.81;100.00;93277.19;5089892;28;20852;-79
2022/08/05 04:51:11;;;;;;;8.40;5.13;;;;;;;15.69;100.00;93243.63;5094929;28;20455;-79
2022/08/05 04:53:38;;;;;;;7.57;5.40;;;;;;;15.95;100.00;93269.88;5104285;28;20135;-79
2022/08/05 04:56:06;;;;;;;5.80;4.75;;;;;;;15.99;100.00;93275.34;5097182;28;20039;-79
2022/08/05 04:58:34;;;;;;;7.22;5.30;;;;;;;16.15;100.00;93265.94;5096247;28;20677;-79
2022/08/05 05:01:01;;;;;;;6.60;4.85;;;;;;;16.29;100.00;93277.50;5103762;28;20047;-79
2022/08/05 05:03:28;;;;;;;8.05;4.90;;;;;;;16.48;99.92;93268.59;5102290;28;20047;-78
2022/08/05 05:05:54;;;;;;;6.82;5.60;;;;;;;16.57;99.97;93261.94;5095759;28;20431;-80
2022/08/05 05:08:21;;;;;;;6.07;4.57;;;;;;;16.70;98.70;93265.94;5099430;28;20516;-79
2022/08/05 05:10:49;;;;;;;5.65;4.53;;;;;;;16.83;98.19;93269.94;5103710;28;20056;-78
2022/08/05 05:13:18;;;;;;;6.00;4.43;;;;;;;16.93;98.18;93266.66;5097511;28;20063;-78
2022/08/05 05:15:46;;;;;;;6.10;4.80;;;;;;;16.96;100.00;93268.75;5094601;28;20040;-79
2022/08/05 05:18:14;;;;;;;7.45;4.57;;;;;;;17.05;97.58;93269.91;5093600;28;20487;-82
2022/08/05 05:20:43;;;;;;;6.03;5.05;;;;;;;17.03;97.21;93264.16;5099860;28;20146;-81
2022/08/05 05:23:10;;;;;;;7.28;4.70;;;;;;;17.15;97.24;93256.22;5095555;28;20044;-79
2022/08/05 05:25:37;;;;;;;12.35;5.45;;;;;;;17.30;96.50;93265.13;5107629;28;20093;-79
2022/08/05 05:28:04;;;;;;;7.43;5.03;;;;;;;17.28;95.40;93236.84;5104663;28;20459;-79
2022/08/05 05:30:31;;;;;;;6.70;4.88;;;;;;;17.47;96.76;93255.38;5093322;28;20085;-80
2022/08/05 05:33:00;;;;;;;5.88;4.63;;;;;;;17.38;97.28;93238.69;5088631;28;20040;-81
2022/08/05 05:35:26;;;;;;;7.43;4.57;;;;;;;17.54;93.68;93262.16;5086087;28;20113;-79
2022/08/05 05:37:54;;;;;;;6.45;4.45;;;;;;;17.59;93.58;93249.22;5100854;28;20566;-81
2022/08/05 05:40:24;;;;;;;7.75;4.47;;;;;;;17.66;91.79;93241.16;5098617;28;20044;-82
2022/08/05 05:42:51;;;;;;;6.47;4.05;;;;;;;17.90;91.79;93254.53;5095253;28;20463;-81
2022/08/05 05:45:19;;;;;;;6.60;4.65;;;;;;;17.96;92.03;93253.50;5101810;28;20101;-82
2022/08/05 05:47:46;;;;;;;7.55;4.45;;;;;;;18.05;91.04;93253.78;5101390;28;20052;-79
2022/08/05 05:50:17;;;;;;;6.32;4.22;;;;;;;18.20;90.38;93263.50;5095058;28;20443;-80
2022/08/05 05:52:44;;;;;;;7.10;4.47;;;;;;;18.34;89.32;93263.03;5090801;28;20097;-79
2022/08/05 05:55:13;;;;;;;8.13;3.97;;;;;;;18.48;87.42;93263.31;5100191;28;20101;-78
2022/08/05 05:57:42;;;;;;;5.55;3.92;;;;;;;18.63;88.37;93265.16;5095862;28;20047;-78
2022/08/05 06:00:12;;;;;;;5.30;4.15;;;;;;;18.78;88.03;93265.16;5103507;28;20102;-78
2022/08/05 06:02:40;;;;;;;4.60;3.80;;;;;;;18.97;86.39;93259.44;5107215;28;20055;-82
2022/08/05 06:05:08;;;;;;;6.93;3.70;;;;;;;19.21;82.66;93272.75;5094392;28;20044;-82
2022/08/05 06:07:36;;;;;;;8.35;4.72;;;;;;;19.41;84.71;93268.56;5105145;28;20044;-83
2022/08/05 06:10:03;;;;;;;8.20;4.40;;;;;;;19.58;85.06;93264.88;5107059;28;20043;-83
2022/08/05 06:12:30;;;;;;;6.75;4.35;;;;;;;19.86;80.16;93265.31;5102689;28;20191;-84
2022/08/05 06:14:57;;;;;;;8.50;3.97;;;;;;;20.07;79.22;93271.25;5104130;28;20051;-84
2022/08/05 06:17:24;;;;;;;5.38;3.85;;;;;;;20.28;76.94;93255.53;5100372;28;20568;-83
2022/08/05 06:19:51;;;;;;;5.78;4.03;;;;;;;20.66;74.94;93271.47;5103657;28;20104;-84
2022/08/05 06:22:23;;;;;;;7.40;3.90;;;;;;;21.00;71.54;93272.56;5102231;28;20071;-83
2022/08/05 06:24:51;;;;;;;5.82;3.95;;;;;;;21.15;70.96;93273.50;5102473;28;20120;-85
2022/08/05 06:27:18;;;;;;;5.45;3.88;;;;;;;21.26;69.48;93271.56;5099773;28;20044;-83
2022/08/05 06:29:45;;;;;;;6.03;3.92;;;;;;;21.60;70.34;93265.50;5096312;28;20046;-87
2022/08/05 06:32:12;;;;;;;5.72;4.63;;;;;;;21.87;68.61;93265.00;5102640;28;20048;-87
2022/08/05 06:34:41;;;;;;;8.38;4.78;;;;;;;22.02;66.03;93252.78;5106496;28;20826;-85
2022/08/05 06:37:08;;;;;;;7.07;4.63;;;;;;;22.42;65.75;93257.78;5100805;28;20063;-86
2022/08/05 06:39:34;;;;;;;7.88;3.83;;;;;;;22.38;63.37;93252.34;5098405;28;20409;-86
2022/08/05 06:42:03;;;;;;;7.45;4.65;;;;;;;22.62;63.51;93254.13;5105919;28;20055;-84
2022/08/05 06:44:30;;;;;;;6.65;4.25;;;;;;;22.95;64.03;93259.41;5092358;28;20455;-85
2022/08/05 06:46:57;;;;;;;7.07;4.47;;;;;;;23.39;62.42;93253.22;5097502;28;20447;-85
2022/08/05 06:49:25;;;;;;;11.43;4.75;;;;;;;23.92;60.79;93256.47;5091390;28;20481;-86
2022/08/05 06:51:52;;;;;;;6.85;4.45;;;;;;;24.25;59.69;93256.38;5091529;28;20502;-87
2022/08/05 06:54:18;;;;;;;10.98;4.57;;;;;;;24.32;56.34;93256.75;5106527;28;20043;-85
2022/08/05 06:56:45;;;;;;;7.88;4.38;;;;;;;24.76;57.08;93256.31;5100251;28;20048;-86
2022/08/05 06:59:14;;;;;;;6.05;4.07;;;;;;;24.46;56.66;93235.69;5097871;28;20105;-87
2022/08/05 07:01:41;;;;;;;6.07;4.13;;;;;;;24.27;57.36;93247.13;5098377;28;20122;-87
2022/08/05 07:04:07;;;;;;;5.80;4.18;;;;;;;24.32;56.57;93241.00;5099289;28;20044;-86
2022/08/05 07:06:34;;;;;;;8.48;4.40;;;;;;;24.73;54.73;93241.94;5104363;28;20059;-85
2022/08/05 07:09:01;;;;;;;7.10;3.83;;;;;;;25.30;54.54;93243.25;5102111;28;20047;-85
2022/08/05 07:11:29;;;;;;;8.20;4.30;;;;;;;25.78;51.91;93262.03;5096608;28;20055;-85
2022/08/05 07:16:50;;;;;;;8.68;3.97;;;;;;;25.93;51.22;93260.84;5100933;28;20047;-84
2022/08/05 07:19:18;;;;;;;5.93;3.65;;;;;;;25.91;50.15;93265.63;5097855;28;20047;-84
2022/08/05 07:21:45;;;;;;;10.27;4.28;;;;;;;25.47;50.66;93252.28;5099196;28;20052;-85
2022/08/05 07:24:13;;;;;;;7.25;5.10;;;;;;;25.84;50.55;93249.53;5105683;28;20105;-86
2022/08/05 07:26:40;;;;;;;9.95;4.60;;;;;;;26.32;50.54;93245.31;5094459;28;20164;-86
2022/08/05 07:29:07;;;;;;;8.65;4.40;;;;;;;26.83;48.13;93252.75;5095474;28;20068;-86
2022/08/05 07:31:34;;;;;;;7.40;3.97;;;;;;;27.20;47.53;93247.16;5101592;28;20052;-86
2022/08/05 07:34:03;;;;;;;10.45;4.22;;;;;;;27.45;44.74;93248.16;5105422;28;20093;-82
2022/08/05 07:36:32;;;;;;;9.38;5.03;;;;;;;27.56;46.44;93202.97;5092591;28;20051;-83
2022/08/05 07:38:59;;;;;;;8.80;4.82;;;;;;;28.38;45.52;93249.47;5104838;28;20048;-83
2022/08/05 07:41:26;;;;;;;8.52;4.35;;;;;;;28.43;43.92;93237.19;5096917;28;20052;-84
2022/08/05 07:43:53;;;;;;;5.90;4.20;;;;;;;28.73;42.90;93256.38;5099532;28;20112;-83
2022/08/05 07:46:20;;;;;;;9.80;5.30;;;;;;;29.17;42.61;93257.91;5100265;28;20055;-81
2022/08/05 07:48:47;;;;;;;11.18;5.10;;;;;;;29.51;42.47;93256.03;5104918;28;20043;-81
2022/08/05 07:51:15;;;;;;;6.80;3.95;;;;;;;29.72;40.91;93252.53;5097525;28;20052;-81
2022/08/05 07:53:42;;;;;;;7.50;4.22;;;;;;;29.85;41.55;93255.94;5097514;28;20135;-81
2022/08/05 07:56:09;;;;;;;5.32;3.70;;;;;;;29.71;42.04;93248.34;5104819;28;20048;-80
2022/08/05 07:58:36;;;;;;;11.43;3.70;;;;;;;29.84;41.53;93241.94;5102104;28;20054;-81
2022/08/05 08:01:03;;;;;;;6.93;3.58;;;;;;;30.20;42.49;93249.44;5096333;28;20148;-81
2022/08/05 08:03:30;;;;;;;8.90;3.70;;;;;;;29.68;42.23;93247.13;5100891;28;20097;-84
2022/08/05 08:05:56;;;;;;;7.30;3.67;;;;;;;29.11;44.20;93254.69;5104483;28;20059;-82
2022/08/05 08:08:24;;;;;;;11.00;3.78;;;;;;;28.75;43.94;93245.50;5098463;28;20047;-81
2022/08/05 08:10:54;;;;;;;6.80;4.00;;;;;;;29.36;45.08;93251.31;5096125;28;20048;-81
2022/08/05 08:13:21;;;;;;;7.40;3.35;;;;;;;29.45;43.19;93246.72;5093691;28;20528;-82
2022/08/05 08:15:48;;;;;;;4.57;3.28;;;;;;;29.82;43.22;93246.78;5104424;28;20489;-81
2022/08/05 08:18:15;;;;;;;6.90;3.42;;;;;;;30.28;41.83;93235.31;5102011;28;20052;-81
2022/08/05 08:20:42;;;;;;;6.10;3.20;;;;;;;30.32;41.16;93235.41;5091833;28;20043;-82
2022/08/05 08:23:09;;;;;;;5.80;2.97;;;;;;;30.61;41.30;93244.16;5089330;28;20040;-82
2022/08/05 08:25:37;;;;;;;6.22;3.58;;;;;;;30.72;40.79;93232.00;5090189;28;20060;-80
2022/08/05 08:28:07;;;;;;;5.65;2.97;;;;;;;30.95;39.42;93210.25;5088797;28;20044;-82
2022/08/05 08:30:35;;;;;;;3.05;2.17;;;;;;;30.31;37.53;93242.56;5092173;28;20505;-83
2022/08/05 08:33:08;;;;;;;3.60;2.50;;;;;;;29.76;39.62;93234.84;5094193;28;20054;-83
2022/08/05 08:35:34;;;;;;;4.53;2.95;;;;;;;30.18;40.17;93231.25;5090592;28;20047;-82
2022/08/05 08:38:01;;;;;;;3.35;1.98;;;;;;;30.23;37.84;93220.38;5095041;28;20043;-82
2022/08/05 08:40:28;;;;;;;2.83;1.85;;;;;;;29.30;38.34;93237.56;5098199;28;20509;-84
2022/08/05 08:42:57;;;;;;;3.60;1.73;;;;;;;28.98;37.52;93242.53;5103800;28;20040;-82
2022/08/05 08:45:24;;;;;;;2.67;1.98;;;;;;;28.37;39.38;93226.06;5097684;28;20124;-83
2022/08/05 08:47:53;;;;;;;2.70;2.03;;;;;;;28.35;40.06;93242.22;5102898;28;20089;-83
2022/08/05 08:50:21;;;;;;;2.88;2.00;;;;;;;28.31;40.16;93228.09;5103076;28;20047;-81
2022/08/05 08:52:52;;;;;;;3.72;2.03;;;;;;;28.52;39.18;93227.34;5089893;28;20467;-83
2022/08/05 08:55:20;;;;;;;4.22;1.80;;;;;;;28.29;39.97;93246.16;5102164;28;20926;-82
2022/08/05 08:57:47;;;;;;;4.57;2.10;;;;;;;27.32;41.67;93239.38;5095012;28;20126;-81
2022/08/05 09:00:16;;;;;;;2.78;1.52;;;;;;;27.34;41.37;93244.34;5098502;28;20109;-81
2022/08/05 09:02:44;;;;;;;3.75;1.95;;;;;;;27.37;41.34;93243.72;5103673;28;20127;-82
2022/08/05 09:05:12;;;;;;;2.58;1.98;;;;;;;27.42;40.92;93238.28;5099201;28;20055;-82
2022/08/05 09:07:40;;;;;;;2.80;2.28;;;;;;;27.26;41.29;93231.97;5095617;28;20097;-81
2022/08/05 09:10:07;;;;;;;3.92;2.35;;;;;;;26.93;41.44;93201.63;5096886;28;20093;-82
2022/08/05 09:12:34;;;;;;;3.03;1.90;;;;;;;27.67;40.35;93232.47;5089289;28;20040;-82
2022/08/05 09:15:02;;;;;;;4.90;2.65;;;;;;;27.81;40.91;93237.53;5088935;28;20039;-81
2022/08/05 09:17:31;;;;;;;3.95;2.58;;;;;;;27.88;41.01;93233.31;5088880;28;20044;-81
2022/08/05 09:19:59;;;;;;;3.58;2.50;;;;;;;28.22;41.22;93212.28;5088950;28;20052;-81
2022/08/05 09:22:26;;;;;;;3.45;2.22;;;;;;;27.71;41.32;93226.22;5094046;28;20101;-82
2022/08/05 09:25:00;;;;;;;2.63;2.13;;;;;;;27.82;40.80;93194.97;5094920;28;20059;-81
2022/08/05 09:27:36;;;;;;;4.47;2.35;;;;;;;28.32;40.56;93220.97;5105795;28;20048;-82
2022/08/05 09:30:05;;;;;;;3.60;2.00;;;;;;;28.66;41.49;93221.78;5106002;28;20044;-82
2022/08/05 09:32:37;;;;;;;2.80;2.05;;;;;;;28.66;39.83;93221.78;5100042;28;20044;-82
2022/08/05 09:35:11;;;;;;;5.18;2.13;;;;;;;28.58;40.47;93212.03;5107256;28;20055;-81
2022/08/05 09:37:39;;;;;;;5.53;2.10;;;;;;;28.20;39.88;93227.69;5099502;28;20138;-81
2022/08/05 09:40:07;;;;;;;6.72;2.25;;;;;;;28.16;39.29;93229.41;5104651;28;20093;-81
2022/08/05 09:42:40;;;;;;;4.00;2.28;;;;;;;28.00;39.52;93221.28;5107787;28;20097;-83
2022/08/05 09:45:09;;;;;;;3.97;2.22;;;;;;;27.69;40.29;93223.16;5100493;28;20088;-82
2022/08/05 09:47:41;;;;;;;3.28;2.10;;;;;;;28.15;39.36;93219.94;5107245;28;20040;-81
2022/08/05 09:50:08;;;;;;;2.83;2.05;;;;;;;28.54;38.75;93215.34;5095632;28;20051;-81
2022/08/05 09:52:36;;;;;;;3.40;2.22;;;;;;;28.59;38.39;93193.22;5102862;28;20047;-82
2022/08/05 09:55:07;;;;;;;4.13;2.38;;;;;;;28.39;38.81;93202.72;5103628;28;20496;-81
2022/08/05 09:57:36;;;;;;;4.13;2.10;;;;;;;28.76;37.67;93199.47;5101441;28;20051;-79
2022/08/05 10:00:09;;;;;;;6.82;2.42;;;;;;;28.98;37.92;93203.66;5101093;28;20059;-80
2022/08/05 10:02:40;;;;;;;5.15;2.20;;;;;;;29.39;37.82;93203.81;5105405;28;20047;-82
2022/08/05 10:05:10;;;;;;;3.85;2.70;;;;;;;28.98;37.23;93203.66;5098742;28;20132;-80
2022/08/05 10:07:49;;;;;;;7.05;2.92;;;;;;;29.29;37.20;93196.31;5112776;28;20062;-81
2022/08/05 10:10:17;;;;;;;4.85;2.47;;;;;;;29.04;37.13;93191.75;5113065;28;20044;-82
2022/08/05 10:12:45;;;;;;;3.20;2.53;;;;;;;29.13;36.40;93180.31;5094185;28;20048;-82
2022/08/05 10:15:24;;;;;;;4.20;2.78;;;;;;;29.31;36.68;93191.47;5090851;28;20075;-81
2022/08/05 10:18:09;;;;;;;3.47;2.25;;;;;;;29.40;35.47;93189.50;5099334;28;20039;-82
2022/08/05 10:20:38;;;;;;;3.95;2.67;;;;;;;29.81;36.36;93192.28;5098159;28;20563;-82
2022/08/05 10:23:05;;;;;;;3.92;2.53;;;;;;;29.78;36.60;93186.88;5104389;28;20649;-83
2022/08/05 10:25:32;;;;;;;3.38;1.95;;;;;;;29.44;35.69;93200.97;5098376;28;20108;-83
2022/08/05 10:28:00;;;;;;;3.63;2.25;;;;;;;29.57;34.34;93179.84;5101371;28;20516;-82
2022/08/05 10:30:27;;;;;;;3.50;2.63;;;;;;;29.60;34.85;93181.81;5106689;28;20044;-81
2022/08/05 10:32:57;;;;;;;2.78;1.92;;;;;;;29.32;35.76;93193.78;5101999;28;20092;-81
2022/08/05 10:35:26;;;;;;;2.97;2.50;;;;;;;29.23;33.49;93176.47;5095917;28;20476;-88
2022/08/05 10:37:54;;;;;;;3.10;2.30;;;;;;;29.37;34.00;93184.88;5101023;28;20044;-82
2022/08/05 10:40:31;;;;;;;4.65;2.50;;;;;;;29.72;32.90;93181.81;5097777;28;20052;-84
2022/08/05 10:43:04;;;;;;;3.97;2.30;;;;;;;29.46;34.13;93174.97;5103365;28;20051;-81
2022/08/05 10:45:33;;;;;;;4.47;2.20;;;;;;;29.38;33.81;93180.34;5104556;28;20051;-85
2022/08/05 10:48:33;;;;;;;3.55;1.98;;;;;;;29.28;35.26;93163.81;5100318;28;20093;-86
2022/08/05 10:51:03;;;;;;;3.85;2.22;;;;;;;29.69;33.46;93163.94;5097389;28;20075;-84
2022/08/05 10:53:38;;;;;;;3.88;2.72;;;;;;;29.32;33.67;93142.75;5100688;28;20048;-81
2022/08/05 10:56:06;;;;;;;3.37;2.23;;;;;;;29.74;31.59;93174.31;5106140;28;20040;-81
2022/08/05 10:58:34;;;;;;;3.53;1.90;;;;;;;30.20;30.69;93168.09;5102689;28;20043;-80
2022/08/05 11:01:05;;;;;;;3.40;2.10;;;;;;;30.58;31.01;93160.78;5097328;28;20138;-80
2022/08/05 11:03:33;;;;;;;3.30;2.05;;;;;;;30.27;30.76;93159.59;5101470;28;20063;-80
2022/08/05 11:06:06;;;;;;;2.83;1.95;;;;;;;30.21;31.96;93145.78;5091267;28;20135;-80
2022/08/05 11:08:33;;;;;;;2.80;2.15;;;;;;;30.51;33.35;93145.44;5108893;28;20051;-81
2022/08/05 11:11:34;;;;;;;2.75;1.83;;;;;;;30.91;31.43;93148.41;5101895;28;20184;-81
2022/08/05 11:14:02;;;;;;;3.55;2.67;;;;;;;31.47;32.01;93136.13;5097768;28;20109;-81
2022/08/05 11:16:30;;;;;;;4.20;1.70;;;;;;;31.20;30.46;93157.06;5098434;28;20054;-82
2022/08/05 11:19:25;;;;;;;2.47;2.00;;;;;;;30.70;29.08;93159.22;5096182;28;20043;-81
2022/08/05 11:21:53;;;;;;;2.60;1.75;;;;;;;31.15;29.86;93150.13;5097305;28;20139;-81
2022/08/05 11:24:22;;;;;;;2.50;1.65;;;;;;;31.43;29.28;93146.63;5104033;28;20770;-81
2022/08/05 11:26:50;;;;;;;4.70;2.40;;;;;;;30.98;29.76;93145.16;5107582;28;20572;-82
2022/08/05 11:29:40;;;;;;;2.38;1.13;;;;;;;31.10;27.31;93141.66;5105173;28;20059;-81
2022/08/05 11:32:27;;;;;;;3.25;1.75;;;;;;;31.30;28.42;93145.19;5070888;28;20059;-81
2022/08/05 11:34:54;;;;;;;4.75;2.28;;;;;;;31.38;28.63;93124.91;5101264;28;20084;-81
2022/08/05 11:37:56;;;;;;;2.72;1.70;;;;;;;32.34;27.31;93126.56;5096745;28;20048;-81
2022/08/05 11:40:58;;;;;;;3.25;1.80;;;;;;;30.72;29.08;93141.84;5092212;28;20048;-82
2022/08/05 11:43:25;;;;;;;3.38;1.95;;;;;;;31.02;30.33;93127.44;5101479;28;20043;-83